Time;durP1;ratioP1;P1;durP2;ratioP2;P2;SDS_P1;SDS_P2;PMS_P1;PMS_P2;Temp;Humidity;BMP_temperature;BMP_pressure;BME280_temperature;BME280_humidity;BME280_pressure;Samples;Min_cycle;Max_cycle;Signal;HPM_P1;HPM_P2
2023/06/28 00:01:59;;;;;;;0.00;0.00;;;19.40;76.90;;;;;;5050569;28;20541;-61
2023/06/28 00:04:25;;;;;;;0.00;0.00;;;19.50;76.60;;;;;;5050781;28;20181;-61
2023/06/28 00:06:50;;;;;;;0.10;0.00;;;19.50;76.30;;;;;;5032119;28;20509;-61
2023/06/28 00:09:16;;;;;;;0.05;0.05;;;19.40;76.40;;;;;;5049402;28;20567;-61
2023/06/28 00:11:44;;;;;;;0.00;0.00;;;19.40;76.70;;;;;;5050800;28;20681;-61
2023/06/28 00:14:09;;;;;;;0.00;0.00;;;19.30;77.10;;;;;;5050543;28;20636;-61
2023/06/28 00:16:35;;;;;;;0.00;0.00;;;19.30;76.90;;;;;;5050806;28;20178;-61
2023/06/28 00:19:01;;;;;;;0.00;0.00;;;19.30;77.40;;;;;;5050808;28;20232;-61
2023/06/28 00:21:27;;;;;;;0.00;0.00;;;19.20;77.30;;;;;;5050387;28;20851;-61
2023/06/28 00:23:53;;;;;;;0.00;0.00;;;19.20;77.70;;;;;;5050649;28;20174;-61
2023/06/28 00:26:18;;;;;;;0.00;0.00;;;19.20;78.40;;;;;;5050150;28;20189;-61
2023/06/28 00:28:44;;;;;;;0.00;0.00;;;19.10;80.80;;;;;;5050121;28;20220;-61
2023/06/28 00:31:09;;;;;;;0.00;0.00;;;19.10;80.80;;;;;;5050221;28;20182;-61
2023/06/28 00:33:35;;;;;;;0.00;0.00;;;19.10;81.40;;;;;;5050585;28;20188;-61
2023/06/28 00:36:01;;;;;;;0.00;0.00;;;19.10;82.30;;;;;;5050627;28;20181;-61
2023/06/28 00:38:26;;;;;;;0.00;0.00;;;19.00;82.70;;;;;;5048548;28;20188;-61
2023/06/28 00:40:52;;;;;;;0.00;0.00;;;18.90;83.80;;;;;;5050247;28;20262;-61
2023/06/28 00:43:17;;;;;;;0.00;0.00;;;18.90;84.20;;;;;;5050143;28;20185;-62
2023/06/28 00:45:43;;;;;;;0.10;0.10;;;18.80;84.70;;;;;;5049725;28;20204;-61
2023/06/28 00:48:09;;;;;;;0.00;0.00;;;18.80;85.00;;;;;;5049788;28;20185;-61
2023/06/28 00:50:36;;;;;;;0.00;0.00;;;18.80;85.20;;;;;;5050256;28;20695;-61
2023/06/28 00:53:02;;;;;;;0.00;0.00;;;18.80;85.50;;;;;;5049212;28;20295;-61
2023/06/28 00:55:27;;;;;;;0.00;0.00;;;18.80;86.10;;;;;;5049650;28;20265;-61
2023/06/28 00:57:53;;;;;;;0.00;0.00;;;18.80;86.60;;;;;;5050088;28;20181;-61
2023/06/28 01:00:19;;;;;;;0.00;0.00;;;18.70;87.40;;;;;;5050065;28;20248;-61
2023/06/28 01:02:44;;;;;;;0.00;0.00;;;18.60;87.60;;;;;;5049839;28;20722;-61
2023/06/28 01:05:13;;;;;;;0.00;0.00;;;18.60;88.50;;;;;;5050475;28;20174;-61
2023/06/28 01:07:40;;;;;;;0.00;0.00;;;18.60;89.50;;;;;;5047347;28;20226;-61
2023/06/28 01:10:07;;;;;;;0.00;0.00;;;18.50;89.70;;;;;;5049632;28;20174;-61
2023/06/28 01:12:34;;;;;;;0.00;0.00;;;18.50;90.10;;;;;;5050179;28;20262;-61
2023/06/28 01:14:59;;;;;;;0.00;0.00;;;18.50;90.40;;;;;;5050155;28;20209;-61
2023/06/28 01:17:25;;;;;;;0.00;0.00;;;18.50;91.00;;;;;;5050161;28;20608;-62
2023/06/28 01:19:54;;;;;;;0.00;0.00;;;18.50;92.10;;;;;;5050331;28;20177;-62
2023/06/28 01:22:20;;;;;;;0.00;0.00;;;18.40;92.80;;;;;;5050101;28;20178;-62
2023/06/28 01:24:46;;;;;;;0.00;0.00;;;18.40;93.90;;;;;;5050098;28;20201;-61
2023/06/28 01:27:13;;;;;;;0.00;0.00;;;18.40;94.50;;;;;;5044142;28;20599;-61
2023/06/28 01:29:40;;;;;;;0.00;0.00;;;18.30;95.60;;;;;;5031780;28;20174;-61
2023/06/28 01:32:06;;;;;;;0.00;0.00;;;18.20;96.30;;;;;;5033572;28;20307;-62
2023/06/28 01:34:32;;;;;;;0.00;0.00;;;18.20;96.70;;;;;;5050292;28;20185;-62
2023/06/28 01:37:01;;;;;;;0.00;0.00;;;18.20;97.40;;;;;;5054911;28;20185;-61
2023/06/28 01:39:30;;;;;;;0.00;0.00;;;18.20;98.10;;;;;;5052099;28;20169;-61
2023/06/28 01:41:58;;;;;;;0.00;0.00;;;18.20;98.80;;;;;;5053143;28;20181;-61
2023/06/28 01:44:24;;;;;;;0.00;0.00;;;18.20;99.40;;;;;;5053070;28;20252;-61
2023/06/28 01:46:51;;;;;;;0.00;0.00;;;18.20;99.90;;;;;;5052772;28;20604;-61
2023/06/28 01:49:17;;;;;;;0.00;0.00;;;18.20;99.90;;;;;;5053095;28;20255;-61
2023/06/28 01:51:43;;;;;;;0.00;0.00;;;18.20;99.90;;;;;;5052662;28;20241;-61
2023/06/28 01:54:08;;;;;;;0.00;0.00;;;18.20;99.90;;;;;;5053121;28;20185;-61
2023/06/28 01:56:34;;;;;;;0.00;0.00;;;18.20;99.90;;;;;;5053025;28;20170;-61
2023/06/28 01:59:00;;;;;;;0.00;0.00;;;18.10;99.90;;;;;;5052707;28;20177;-61
2023/06/28 02:01:25;;;;;;;0.00;0.00;;;18.10;99.90;;;;;;5053101;28;20547;-61
2023/06/28 02:03:51;;;;;;;0.00;0.00;;;18.10;99.90;;;;;;5052531;28;20539;-61
2023/06/28 02:06:17;;;;;;;0.00;0.00;;;18.10;99.90;;;;;;5052528;28;20246;-62
2023/06/28 02:08:43;;;;;;;1.77;0.10;;;18.00;99.90;;;;;;5052452;28;20181;-61
2023/06/28 02:11:08;;;;;;;0.00;0.00;;;17.90;99.90;;;;;;5052798;28;20231;-61
2023/06/28 02:13:34;;;;;;;0.00;0.00;;;17.90;99.90;;;;;;5052566;28;20560;-61
2023/06/28 02:16:01;;;;;;;0.00;0.00;;;17.90;99.90;;;;;;5046598;28;20181;-61
2023/06/28 02:18:27;;;;;;;0.00;0.00;;;17.90;99.90;;;;;;5051553;28;20178;-61
2023/06/28 02:20:52;;;;;;;0.00;0.00;;;17.90;99.90;;;;;;5052887;28;20193;-61
2023/06/28 02:23:19;;;;;;;0.00;0.00;;;17.80;99.90;;;;;;5052555;28;20264;-61
2023/06/28 02:25:44;;;;;;;0.00;0.00;;;17.80;99.90;;;;;;5052655;28;20242;-61
2023/06/28 02:28:10;;;;;;;0.00;0.00;;;17.90;99.90;;;;;;5052003;28;20297;-61
2023/06/28 02:30:35;;;;;;;0.00;0.00;;;17.90;99.90;;;;;;5051833;28;20185;-61
2023/06/28 02:33:01;;;;;;;0.00;0.00;;;17.90;99.90;;;;;;5052052;28;20224;-61
2023/06/28 02:35:27;;;;;;;0.00;0.00;;;17.90;99.90;;;;;;5051893;28;20174;-61
2023/06/28 02:37:52;;;;;;;0.00;0.00;;;17.80;99.90;;;;;;5051891;28;20185;-61
2023/06/28 02:40:18;;;;;;;0.00;0.00;;;17.80;99.90;;;;;;5050082;28;20235;-61
2023/06/28 02:42:44;;;;;;;0.00;0.00;;;17.80;99.90;;;;;;5046881;28;20219;-61
2023/06/28 02:45:10;;;;;;;0.45;0.30;;;17.80;99.90;;;;;;5050704;28;20204;-61
2023/06/28 02:47:35;;;;;;;0.00;0.00;;;17.80;99.90;;;;;;5050768;28;20174;-61
2023/06/28 02:50:05;;;;;;;0.00;0.00;;;17.80;99.90;;;;;;5051112;28;20185;-61
2023/06/28 02:52:31;;;;;;;0.00;0.00;;;17.80;99.90;;;;;;5051336;28;20229;-61
2023/06/28 02:54:57;;;;;;;0.00;0.00;;;17.70;99.90;;;;;;5051576;28;20184;-61
2023/06/28 02:57:22;;;;;;;0.00;0.00;;;17.70;99.90;;;;;;5051487;28;20804;-61
2023/06/28 02:59:48;;;;;;;0.00;0.00;;;17.70;99.90;;;;;;5050966;28;20177;-61
2023/06/28 03:02:15;;;;;;;0.00;0.00;;;17.70;99.90;;;;;;5051616;28;20579;-61
2023/06/28 03:04:41;;;;;;;0.00;0.00;;;17.70;99.90;;;;;;5051102;28;20315;-61
2023/06/28 03:07:12;;;;;;;0.00;0.00;;;17.70;99.90;;;;;;5051340;28;20185;-61
2023/06/28 03:09:38;;;;;;;0.00;0.00;;;17.70;99.90;;;;;;5050465;28;20165;-61
2023/06/28 03:12:04;;;;;;;0.00;0.00;;;17.80;99.90;;;;;;5050934;28;20216;-62
2023/06/28 03:14:29;;;;;;;0.10;0.10;;;17.80;99.90;;;;;;5051158;28;20222;-62
2023/06/28 03:16:55;;;;;;;0.00;0.00;;;17.80;99.90;;;;;;5051386;28;20185;-61
2023/06/28 03:19:20;;;;;;;0.00;0.00;;;17.80;99.90;;;;;;5051277;28;20582;-61
2023/06/28 03:21:46;;;;;;;0.00;0.00;;;17.80;99.90;;;;;;5051410;28;20539;-61
2023/06/28 03:24:11;;;;;;;0.00;0.00;;;17.80;99.90;;;;;;5051069;28;20648;-61
2023/06/28 03:26:37;;;;;;;0.00;0.00;;;17.70;99.90;;;;;;5050660;28;20204;-62
2023/06/28 03:29:02;;;;;;;0.00;0.00;;;17.70;99.90;;;;;;5050691;28;20204;-61
2023/06/28 03:31:28;;;;;;;0.00;0.00;;;17.80;99.90;;;;;;5049735;28;20197;-61
2023/06/28 03:33:53;;;;;;;0.08;0.08;;;17.80;99.90;;;;;;5047548;28;20196;-61
2023/06/28 03:36:19;;;;;;;0.00;0.00;;;17.80;99.90;;;;;;5051149;28;20169;-62
2023/06/28 03:38:44;;;;;;;0.00;0.00;;;17.90;99.90;;;;;;5051387;28;20227;-62
2023/06/28 03:41:10;;;;;;;0.00;0.00;;;17.80;99.90;;;;;;5050100;28;20197;-62
2023/06/28 03:43:35;;;;;;;0.00;0.00;;;17.80;99.90;;;;;;5051321;28;20181;-61
2023/06/28 03:46:01;;;;;;;0.00;0.00;;;17.90;99.90;;;;;;5051009;28;20161;-61
2023/06/28 03:48:26;;;;;;;0.22;0.22;;;17.80;99.80;;;;;;5049564;28;20645;-62
2023/06/28 03:50:52;;;;;;;0.00;0.00;;;17.90;99.80;;;;;;5048885;28;20579;-61
2023/06/28 03:53:18;;;;;;;0.00;0.00;;;17.90;99.80;;;;;;5050419;28;20240;-59
2023/06/28 03:55:43;;;;;;;0.00;0.00;;;17.90;99.60;;;;;;5051224;28;20180;-61
2023/06/28 03:58:10;;;;;;;0.00;0.00;;;17.90;99.60;;;;;;5049917;28;20651;-58
2023/06/28 04:00:35;;;;;;;0.00;0.00;;;17.90;99.70;;;;;;5050450;28;20173;-63
2023/06/28 04:03:02;;;;;;;0.00;0.00;;;17.90;99.60;;;;;;5050546;28;20824;-60
2023/06/28 04:05:27;;;;;;;0.00;0.00;;;17.90;99.60;;;;;;5046788;28;20186;-60
2023/06/28 04:07:58;;;;;;;0.00;0.00;;;17.90;99.90;;;;;;5049097;28;20174;-60
2023/06/28 04:10:24;;;;;;;0.00;0.00;;;18.00;99.90;;;;;;5047439;28;20714;-63
2023/06/28 04:12:50;;;;;;;0.00;0.00;;;18.00;99.90;;;;;;5050099;28;20219;-63
2023/06/28 04:15:16;;;;;;;0.00;0.00;;;18.10;99.90;;;;;;5049412;28;20165;-63
2023/06/28 04:17:41;;;;;;;0.00;0.00;;;18.00;99.90;;;;;;5050757;28;20184;-64
2023/06/28 04:20:07;;;;;;;0.00;0.00;;;18.10;99.90;;;;;;5050531;28;20173;-63
2023/06/28 04:22:33;;;;;;;0.00;0.00;;;18.00;99.90;;;;;;5050828;28;20177;-63
2023/06/28 04:24:59;;;;;;;0.00;0.00;;;18.00;99.90;;;;;;5048856;28;20529;-63
2023/06/28 04:27:25;;;;;;;0.00;0.00;;;18.00;99.90;;;;;;5050240;28;20221;-63
2023/06/28 04:29:50;;;;;;;0.00;0.00;;;18.00;99.90;;;;;;5050835;28;20217;-63
2023/06/28 04:32:25;;;;;;;0.00;0.00;;;18.00;99.90;;;;;;5050765;28;20669;-63
2023/06/28 04:34:53;;;;;;;0.00;0.00;;;18.00;99.90;;;;;;5050979;28;20181;-63
2023/06/28 04:37:22;;;;;;;0.10;0.10;;;18.00;99.90;;;;;;5050684;28;20262;-62
2023/06/28 04:39:48;;;;;;;0.00;0.00;;;18.00;99.90;;;;;;5050826;28;20177;-63
2023/06/28 04:42:14;;;;;;;0.00;0.00;;;18.00;99.90;;;;;;5050755;28;20179;-62
2023/06/28 04:44:43;;;;;;;0.00;0.00;;;18.00;99.90;;;;;;5050296;28;20535;-63
2023/06/28 04:47:09;;;;;;;0.00;0.00;;;18.00;99.90;;;;;;5050696;28;20178;-62
2023/06/28 04:49:34;;;;;;;0.00;0.00;;;18.00;99.90;;;;;;5049234;28;20204;-63
2023/06/28 04:52:00;;;;;;;0.00;0.00;;;18.00;99.90;;;;;;5048773;28;20566;-63
2023/06/28 04:54:26;;;;;;;0.00;0.00;;;18.00;99.90;;;;;;5050571;28;20177;-63
2023/06/28 04:56:52;;;;;;;0.00;0.00;;;18.00;99.90;;;;;;5050554;28;20231;-63
2023/06/28 04:59:17;;;;;;;1.00;0.30;;;18.00;99.90;;;;;;5050627;28;20208;-62
2023/06/28 05:01:43;;;;;;;0.00;0.00;;;18.00;99.90;;;;;;5049436;28;20181;-63
2023/06/28 05:04:08;;;;;;;0.00;0.00;;;18.00;99.90;;;;;;5051515;28;20295;-63
2023/06/28 05:06:35;;;;;;;0.00;0.00;;;18.00;99.90;;;;;;5054544;28;20181;-63
2023/06/28 05:09:01;;;;;;;0.00;0.00;;;18.00;99.90;;;;;;5054603;28;20181;-63
2023/06/28 05:11:27;;;;;;;0.00;0.00;;;18.00;99.90;;;;;;5054359;28;20204;-63
2023/06/28 05:13:52;;;;;;;0.00;0.00;;;18.00;99.90;;;;;;5054400;28;20177;-63
2023/06/28 05:16:18;;;;;;;0.00;0.00;;;18.00;99.90;;;;;;5054240;28;20169;-63
2023/06/28 05:18:44;;;;;;;0.00;0.00;;;18.00;99.90;;;;;;5054328;28;20181;-63
2023/06/28 05:21:09;;;;;;;0.00;0.00;;;18.10;99.90;;;;;;5054322;28;20220;-63
2023/06/28 05:23:35;;;;;;;0.17;0.17;;;18.10;99.90;;;;;;5054214;28;20540;-63
2023/06/28 05:26:01;;;;;;;0.00;0.00;;;18.10;99.90;;;;;;5052822;28;20644;-63
2023/06/28 05:28:26;;;;;;;0.08;0.05;;;18.10;99.90;;;;;;5053899;28;20635;-63
2023/06/28 05:30:52;;;;;;;0.00;0.00;;;18.10;99.90;;;;;;5054100;28;20248;-63
2023/06/28 05:33:18;;;;;;;0.13;0.13;;;18.10;99.90;;;;;;5053801;28;20209;-63
2023/06/28 05:35:43;;;;;;;0.00;0.00;;;18.20;99.90;;;;;;5054024;28;20165;-62
2023/06/28 05:38:09;;;;;;;0.00;0.00;;;18.20;99.90;;;;;;5053938;28;20254;-63
2023/06/28 05:40:34;;;;;;;0.00;0.00;;;18.20;99.90;;;;;;5054247;28;20537;-63
2023/06/28 05:43:00;;;;;;;0.10;0.10;;;18.30;99.90;;;;;;5053898;28;20173;-63
2023/06/28 05:45:26;;;;;;;0.00;0.00;;;18.30;99.90;;;;;;5052577;28;20170;-63
2023/06/28 05:47:52;;;;;;;0.05;0.05;;;18.30;99.90;;;;;;5053952;28;20554;-63
2023/06/28 05:50:20;;;;;;;0.03;0.03;;;18.20;99.90;;;;;;5052330;28;20173;-62
2023/06/28 05:52:46;;;;;;;0.00;0.00;;;18.20;99.90;;;;;;5053740;28;20221;-63
2023/06/28 05:55:12;;;;;;;0.00;0.00;;;18.20;99.90;;;;;;5053662;28;20170;-63
2023/06/28 05:57:37;;;;;;;0.10;0.10;;;18.30;99.90;;;;;;5053495;28;20672;-63
2023/06/28 06:00:08;;;;;;;0.00;0.00;;;18.20;99.90;;;;;;5053614;28;20185;-63
2023/06/28 06:02:34;;;;;;;0.00;0.00;;;18.20;99.90;;;;;;5053357;28;20657;-63
2023/06/28 06:05:01;;;;;;;0.00;0.00;;;18.10;99.90;;;;;;5053505;28;20176;-63
2023/06/28 06:07:28;;;;;;;0.00;0.00;;;18.10;99.90;;;;;;5053547;28;20207;-63
2023/06/28 06:09:56;;;;;;;0.00;0.00;;;18.10;99.90;;;;;;5052192;28;20177;-64
2023/06/28 06:12:24;;;;;;;0.00;0.00;;;18.20;99.90;;;;;;5053295;28;20213;-63
2023/06/28 06:14:50;;;;;;;0.00;0.00;;;18.30;99.90;;;;;;5053234;28;20230;-63
2023/06/28 06:17:16;;;;;;;0.00;0.00;;;18.50;99.90;;;;;;5053243;28;20181;-63
2023/06/28 06:19:42;;;;;;;0.00;0.00;;;18.60;99.90;;;;;;5053221;28;20188;-63
2023/06/28 06:22:07;;;;;;;0.08;0.08;;;18.80;99.90;;;;;;5053206;28;20782;-63
2023/06/28 06:24:33;;;;;;;0.00;0.00;;;18.90;99.90;;;;;;5053081;28;20181;-63
2023/06/28 06:26:58;;;;;;;0.00;0.00;;;19.10;99.90;;;;;;5052930;28;20630;-63
2023/06/28 06:29:24;;;;;;;0.00;0.00;;;19.10;99.90;;;;;;5053036;28;20173;-64
2023/06/28 06:31:49;;;;;;;0.00;0.00;;;19.20;99.90;;;;;;5052935;28;20200;-63
2023/06/28 06:34:15;;;;;;;0.00;0.00;;;19.30;99.90;;;;;;5052919;28;20640;-63
2023/06/28 06:36:40;;;;;;;0.00;0.00;;;19.40;99.80;;;;;;5052785;28;20173;-63
2023/06/28 06:39:06;;;;;;;0.00;0.00;;;19.60;99.50;;;;;;5052890;28;20166;-63
2023/06/28 06:41:32;;;;;;;0.00;0.00;;;19.70;99.10;;;;;;5052797;28;20181;-63
2023/06/28 06:43:57;;;;;;;0.00;0.00;;;19.70;99.40;;;;;;5052742;28;20174;-63
2023/06/28 06:46:23;;;;;;;0.00;0.00;;;19.70;99.00;;;;;;5051634;28;20264;-63
2023/06/28 06:48:48;;;;;;;0.00;0.00;;;19.80;98.80;;;;;;5052810;28;20264;-63
2023/06/28 06:51:14;;;;;;;0.00;0.00;;;19.80;98.70;;;;;;5052567;28;20182;-64
2023/06/28 06:53:40;;;;;;;0.00;0.00;;;19.90;98.20;;;;;;5052489;28;20189;-64
2023/06/28 06:56:06;;;;;;;0.00;0.00;;;19.90;98.00;;;;;;5052604;28;20178;-62
2023/06/28 06:58:31;;;;;;;0.10;0.10;;;20.00;97.90;;;;;;5052472;28;20169;-61
2023/06/28 07:00:57;;;;;;;0.00;0.00;;;20.00;97.20;;;;;;5052514;28;20197;-62
2023/06/28 07:03:22;;;;;;;0.00;0.00;;;20.00;96.40;;;;;;5052412;28;20185;-64
2023/06/28 07:05:48;;;;;;;0.00;0.00;;;20.10;95.70;;;;;;5052457;28;20174;-62
2023/06/28 07:08:13;;;;;;;0.00;0.00;;;20.10;95.30;;;;;;5052366;28;20656;-63
2023/06/28 07:10:39;;;;;;;0.05;0.05;;;20.20;94.90;;;;;;5052198;28;20695;-62
2023/06/28 07:13:04;;;;;;;0.00;0.00;;;20.30;95.40;;;;;;5052260;28;20611;-62
2023/06/28 07:15:30;;;;;;;0.00;0.00;;;20.40;95.10;;;;;;5052176;28;20196;-63
2023/06/28 07:17:55;;;;;;;0.00;0.00;;;20.60;95.30;;;;;;5052309;28;20533;-62
2023/06/28 07:20:21;;;;;;;0.00;0.00;;;20.70;95.00;;;;;;5052143;28;20204;-62
2023/06/28 07:22:47;;;;;;;0.00;0.00;;;20.90;94.50;;;;;;5052190;28;20584;-62
2023/06/28 07:25:13;;;;;;;0.00;0.00;;;21.00;93.90;;;;;;5052070;28;20546;-62
2023/06/28 07:27:39;;;;;;;0.00;0.00;;;21.10;93.50;;;;;;5050882;28;20225;-63
2023/06/28 07:30:07;;;;;;;0.10;0.10;;;21.20;93.60;;;;;;5051870;28;20208;-62
2023/06/28 07:32:33;;;;;;;0.00;0.00;;;21.30;93.00;;;;;;5051670;28;20249;-63
2023/06/28 07:34:58;;;;;;;0.10;0.10;;;21.40;93.30;;;;;;5051592;28;20201;-62
2023/06/28 07:37:24;;;;;;;0.05;0.05;;;21.50;92.80;;;;;;5051725;28;20247;-62
2023/06/28 07:39:50;;;;;;;0.00;0.00;;;21.60;92.90;;;;;;5051715;28;20227;-62
2023/06/28 07:42:16;;;;;;;0.00;0.00;;;21.80;92.10;;;;;;5051610;28;20181;-62
2023/06/28 07:44:41;;;;;;;0.00;0.00;;;21.90;91.30;;;;;;5051556;28;20653;-62
2023/06/28 07:47:07;;;;;;;0.00;0.00;;;22.00;90.50;;;;;;5051554;28;20230;-63
2023/06/28 07:49:32;;;;;;;0.00;0.00;;;22.10;90.60;;;;;;5051581;28;20178;-63
2023/06/28 07:51:59;;;;;;;0.00;0.00;;;22.10;90.90;;;;;;5051394;28;20268;-63
2023/06/28 07:54:24;;;;;;;0.00;0.00;;;22.20;90.70;;;;;;5051414;28;20177;-62
2023/06/28 07:56:50;;;;;;;0.00;0.00;;;22.30;90.80;;;;;;5051439;28;20248;-63
2023/06/28 07:59:17;;;;;;;0.05;0.05;;;22.50;90.40;;;;;;5051407;28;20216;-63
2023/06/28 08:01:43;;;;;;;0.00;0.00;;;22.60;90.00;;;;;;5051203;28;20700;-62
2023/06/28 08:04:08;;;;;;;0.00;0.00;;;22.90;88.50;;;;;;5051434;28;20275;-62
2023/06/28 08:06:34;;;;;;;0.00;0.00;;;23.00;88.20;;;;;;5051349;28;20170;-62
2023/06/28 08:08:59;;;;;;;0.00;0.00;;;23.20;86.20;;;;;;5049946;28;20165;-63
2023/06/28 08:11:26;;;;;;;0.05;0.05;;;23.30;86.60;;;;;;5051142;28;20208;-63
2023/06/28 08:13:52;;;;;;;0.00;0.00;;;23.50;86.90;;;;;;5051196;28;20174;-63
2023/06/28 08:16:18;;;;;;;0.00;0.00;;;23.60;87.00;;;;;;5050965;28;20176;-63
2023/06/28 08:18:43;;;;;;;0.00;0.00;;;23.60;85.10;;;;;;5051067;28;20181;-63
2023/06/28 08:21:09;;;;;;;0.00;0.00;;;23.60;83.90;;;;;;5051204;28;20268;-63
2023/06/28 08:23:34;;;;;;;0.00;0.00;;;23.70;84.40;;;;;;5051028;28;20212;-63
2023/06/28 08:26:01;;;;;;;0.08;0.08;;;23.80;84.20;;;;;;5050836;28;20184;-63
2023/06/28 08:28:27;;;;;;;0.00;0.00;;;24.00;83.70;;;;;;5050873;28;20239;-63
2023/06/28 08:30:52;;;;;;;0.30;0.30;;;24.20;82.10;;;;;;5051034;28;20243;-63
2023/06/28 08:33:18;;;;;;;0.00;0.00;;;24.40;81.00;;;;;;5050730;28;20641;-63
2023/06/28 08:35:43;;;;;;;0.00;0.00;;;24.70;80.60;;;;;;5051027;28;20173;-63
2023/06/28 08:38:09;;;;;;;0.00;0.00;;;24.90;78.80;;;;;;5050980;28;20620;-63
2023/06/28 08:40:34;;;;;;;0.00;0.00;;;25.10;77.80;;;;;;5054067;28;20177;-63
2023/06/28 08:43:01;;;;;;;0.00;0.00;;;25.30;76.50;;;;;;5054970;28;20715;-63
2023/06/28 08:45:28;;;;;;;0.00;0.00;;;25.50;76.30;;;;;;5054875;28;20177;-63
2023/06/28 08:47:54;;;;;;;0.00;0.00;;;25.70;73.50;;;;;;5055194;28;20201;-63
2023/06/28 08:50:21;;;;;;;0.00;0.00;;;25.80;72.90;;;;;;5054717;28;20649;-64
2023/06/28 08:52:47;;;;;;;0.00;0.00;;;25.60;71.30;;;;;;5054806;28;20565;-63
2023/06/28 08:55:13;;;;;;;0.00;0.00;;;25.60;73.00;;;;;;5054807;28;20178;-63
2023/06/28 08:57:40;;;;;;;0.00;0.00;;;25.70;73.20;;;;;;5054702;28;20177;-63
2023/06/28 09:00:10;;;;;;;0.20;0.20;;;26.00;72.50;;;;;;5054792;28;20178;-63
2023/06/28 09:02:36;;;;;;;0.28;0.15;;;26.10;71.00;;;;;;5054526;28;20192;-63
2023/06/28 09:05:03;;;;;;;0.00;0.00;;;26.00;71.10;;;;;;5054733;28;20200;-63
2023/06/28 09:07:29;;;;;;;0.00;0.00;;;26.20;71.10;;;;;;5054627;28;20185;-63
2023/06/28 09:09:55;;;;;;;0.03;0.00;;;26.60;70.80;;;;;;5053482;28;20252;-63
2023/06/28 09:12:22;;;;;;;0.00;0.00;;;27.00;68.30;;;;;;5054362;28;20227;-63
2023/06/28 09:14:49;;;;;;;0.00;0.00;;;27.40;67.50;;;;;;5054493;28;20195;-63
2023/06/28 09:17:15;;;;;;;0.00;0.00;;;28.10;64.40;;;;;;5054352;28;20178;-63
2023/06/28 09:19:40;;;;;;;0.00;0.00;;;28.70;62.40;;;;;;5054378;28;20180;-63
2023/06/28 09:22:08;;;;;;;0.10;0.10;;;29.10;61.00;;;;;;5054275;28;20174;-63
2023/06/28 09:24:35;;;;;;;0.00;0.00;;;29.10;58.50;;;;;;5054244;28;20185;-64
2023/06/28 09:27:02;;;;;;;0.00;0.00;;;29.30;60.00;;;;;;5053954;28;20213;-63
2023/06/28 09:29:29;;;;;;;0.00;0.00;;;29.90;59.50;;;;;;5054082;28;20178;-63
2023/06/28 09:31:54;;;;;;;0.00;0.00;;;30.10;54.50;;;;;;5054142;28;20240;-63
2023/06/28 09:34:22;;;;;;;0.10;0.10;;;30.30;53.40;;;;;;5053951;28;20662;-63
2023/06/28 09:36:55;;;;;;;0.00;0.00;;;30.30;52.90;;;;;;5054201;28;20193;-64
2023/06/28 09:39:21;;;;;;;0.00;0.00;;;30.40;53.10;;;;;;5054038;28;20170;-63
2023/06/28 09:41:48;;;;;;;0.00;0.00;;;30.50;52.90;;;;;;5054097;28;20169;-63
2023/06/28 09:44:14;;;;;;;0.00;0.00;;;30.30;53.00;;;;;;5053973;28;20217;-63
2023/06/28 09:46:46;;;;;;;0.00;0.00;;;30.20;51.20;;;;;;5053816;28;20247;-63
2023/06/28 09:49:22;;;;;;;0.00;0.00;;;30.00;51.50;;;;;;5053898;28;20837;-63
2023/06/28 09:52:02;;;;;;;0.30;0.30;;;29.60;52.20;;;;;;5053293;28;20209;-64
2023/06/28 09:54:44;;;;;;;0.00;0.00;;;29.60;52.10;;;;;;5053700;28;20584;-63
2023/06/28 09:57:10;;;;;;;0.00;0.00;;;30.00;53.10;;;;;;5053872;28;20169;-63
2023/06/28 09:59:36;;;;;;;0.00;0.00;;;30.40;52.20;;;;;;5053566;28;20191;-63
2023/06/28 10:02:06;;;;;;;0.00;0.00;;;31.10;50.90;;;;;;5053657;28;20309;-63
2023/06/28 10:04:34;;;;;;;0.00;0.00;;;31.20;48.40;;;;;;5053670;28;20166;-63
2023/06/28 10:07:01;;;;;;;0.00;0.00;;;30.90;49.40;;;;;;5053560;28;20182;-63
2023/06/28 10:09:33;;;;;;;0.00;0.00;;;31.10;48.90;;;;;;5053525;28;20233;-63
2023/06/28 10:12:01;;;;;;;0.00;0.00;;;30.80;49.00;;;;;;5053319;28;20221;-64
2023/06/28 10:14:31;;;;;;;0.00;0.00;;;30.00;49.40;;;;;;5053286;28;20200;-63
2023/06/28 10:16:59;;;;;;;0.00;0.00;;;29.60;51.30;;;;;;5053229;28;20252;-63
2023/06/28 10:19:26;;;;;;;0.00;0.00;;;29.70;50.20;;;;;;5053289;28;20228;-63
2023/06/28 10:21:52;;;;;;;0.00;0.00;;;30.00;50.90;;;;;;5053212;28;20185;-63
2023/06/28 10:24:18;;;;;;;0.00;0.00;;;30.20;49.60;;;;;;5053121;28;20659;-63
2023/06/28 10:26:44;;;;;;;0.10;0.10;;;30.50;48.50;;;;;;5053023;28;20237;-63
2023/06/28 10:29:10;;;;;;;0.00;0.00;;;30.70;49.00;;;;;;5053200;28;20213;-63
2023/06/28 10:31:36;;;;;;;0.00;0.00;;;30.70;48.40;;;;;;5052855;28;20212;-62
2023/06/28 10:34:03;;;;;;;0.00;0.00;;;30.90;49.80;;;;;;5053170;28;20169;-63
2023/06/28 10:36:30;;;;;;;0.00;0.00;;;31.00;49.90;;;;;;5052933;28;20216;-63
2023/06/28 10:38:55;;;;;;;0.00;0.00;;;31.40;48.50;;;;;;5052941;28;20231;-62
2023/06/28 10:41:22;;;;;;;0.00;0.00;;;31.70;48.40;;;;;;5051726;28;20178;-62
2023/06/28 10:43:50;;;;;;;0.00;0.00;;;32.00;48.10;;;;;;5052848;28;20657;-62
2023/06/28 10:46:26;;;;;;;0.00;0.00;;;31.80;46.90;;;;;;5052842;28;20233;-63
2023/06/28 10:48:56;;;;;;;0.00;0.00;;;31.30;46.90;;;;;;5052755;28;20172;-63
2023/06/28 10:51:25;;;;;;;0.00;0.00;;;30.90;47.80;;;;;;5052592;28;20174;-63
2023/06/28 10:53:56;;;;;;;0.00;0.00;;;30.60;49.00;;;;;;5052663;28;20231;-63
2023/06/28 10:56:21;;;;;;;0.00;0.00;;;30.50;49.20;;;;;;5052628;28;20529;-63
2023/06/28 10:58:54;;;;;;;0.00;0.00;;;30.60;50.10;;;;;;5052388;28;20174;-63
2023/06/28 11:01:36;;;;;;;0.00;0.00;;;31.00;48.00;;;;;;5051591;28;20177;-63
2023/06/28 11:04:12;;;;;;;0.00;0.00;;;31.00;48.00;;;;;;5052228;28;20169;-63
2023/06/28 11:06:41;;;;;;;0.00;0.00;;;31.20;48.00;;;;;;5051988;28;20173;-62
2023/06/28 11:09:15;;;;;;;0.10;0.05;;;31.20;48.40;;;;;;5052045;28;20770;-63
2023/06/28 11:11:58;;;;;;;0.00;0.00;;;31.30;48.40;;;;;;5051900;28;20205;-63
2023/06/28 11:14:30;;;;;;;0.00;0.00;;;31.60;49.30;;;;;;5051968;28;20260;-63
2023/06/28 11:17:02;;;;;;;0.00;0.00;;;32.10;47.40;;;;;;5052127;28;20254;-62
2023/06/28 11:19:29;;;;;;;0.30;0.03;;;32.30;47.10;;;;;;5052071;28;20177;-63
2023/06/28 11:21:56;;;;;;;0.00;0.00;;;32.00;47.30;;;;;;5052183;28;20177;-63
2023/06/28 11:24:28;;;;;;;0.00;0.00;;;31.20;47.20;;;;;;5052021;28;20177;-63
2023/06/28 11:26:54;;;;;;;0.00;0.00;;;30.40;48.40;;;;;;5051951;28;20231;-63
2023/06/28 11:29:21;;;;;;;0.00;0.00;;;29.60;48.80;;;;;;5050641;28;20181;-62
2023/06/28 11:31:56;;;;;;;0.00;0.00;;;29.30;49.70;;;;;;5051854;28;20563;-63
2023/06/28 11:34:22;;;;;;;0.00;0.00;;;29.30;50.60;;;;;;5051826;28;20326;-63
2023/06/28 11:36:49;;;;;;;0.00;0.00;;;29.30;50.30;;;;;;5051895;28;20653;-63
2023/06/28 11:39:19;;;;;;;0.00;0.00;;;29.40;50.40;;;;;;5051802;28;20185;-63
2023/06/28 11:41:45;;;;;;;0.00;0.00;;;29.40;50.20;;;;;;5051915;28;20271;-63
2023/06/28 11:44:12;;;;;;;0.00;0.00;;;29.40;50.20;;;;;;5051820;28;20645;-62
2023/06/28 11:46:39;;;;;;;0.00;0.00;;;29.30;50.20;;;;;;5051474;28;20178;-62
2023/06/28 11:49:06;;;;;;;0.00;0.00;;;29.30;50.50;;;;;;5051561;28;20645;-62
2023/06/28 11:51:32;;;;;;;0.00;0.00;;;29.20;51.10;;;;;;5050161;28;20178;-61
2023/06/28 11:53:57;;;;;;;0.00;0.00;;;29.30;50.80;;;;;;5051489;28;20185;-61
2023/06/28 11:56:44;;;;;;;0.00;0.00;;;29.30;50.30;;;;;;5050217;28;20316;-61
2023/06/28 11:59:25;;;;;;;0.00;0.00;;;29.30;50.70;;;;;;5051558;28;20188;-61
2023/06/28 12:02:07;;;;;;;0.00;0.00;;;29.50;51.20;;;;;;5051507;28;20185;-61
2023/06/28 12:04:36;;;;;;;0.00;0.00;;;29.80;51.00;;;;;;5051302;28;20178;-61
2023/06/28 12:07:06;;;;;;;0.00;0.00;;;30.00;49.80;;;;;;5051413;28;20181;-62
2023/06/28 12:09:36;;;;;;;0.00;0.00;;;30.00;50.00;;;;;;5051325;28;20173;-62
2023/06/28 12:12:06;;;;;;;0.00;0.00;;;30.30;50.00;;;;;;5049947;28;20588;-62
2023/06/28 12:14:43;;;;;;;0.00;0.00;;;30.50;50.40;;;;;;5051019;28;20239;-62
2023/06/28 12:17:09;;;;;;;0.00;0.00;;;30.40;48.90;;;;;;5051258;28;20318;-61
2023/06/28 12:19:35;;;;;;;0.45;0.45;;;30.30;48.90;;;;;;5051013;28;20303;-61
2023/06/28 12:22:05;;;;;;;0.00;0.00;;;30.40;49.40;;;;;;5051127;28;20622;-61
2023/06/28 12:24:34;;;;;;;0.00;0.00;;;30.60;48.60;;;;;;5051024;28;20233;-61
2023/06/28 12:27:02;;;;;;;0.00;0.00;;;30.70;48.50;;;;;;5050952;28;20228;-62
2023/06/28 12:29:29;;;;;;;0.00;0.00;;;30.80;49.10;;;;;;5051087;28;20222;-61
2023/06/28 12:32:17;;;;;;;0.00;0.00;;;30.90;49.10;;;;;;5051129;28;20245;-61
2023/06/28 12:34:48;;;;;;;0.00;0.00;;;30.80;49.00;;;;;;5051075;28;20181;-61
2023/06/28 12:37:14;;;;;;;0.00;0.00;;;30.90;49.00;;;;;;5050936;28;20590;-62
2023/06/28 12:39:41;;;;;;;0.00;0.00;;;30.60;48.10;;;;;;5050763;28;20239;-61
2023/06/28 12:42:08;;;;;;;0.00;0.00;;;30.10;48.30;;;;;;5051002;28;20168;-61
2023/06/28 12:44:54;;;;;;;0.10;0.10;;;29.80;49.30;;;;;;5050904;28;20189;-61
2023/06/28 12:47:20;;;;;;;0.00;0.00;;;29.90;49.40;;;;;;5049584;28;20668;-61